Hatch, UT (84735)

11:12 PM MDT on September 02, 2014 (GMT -0600)
RAWS BRYCE CANYON UT US | Change Station
CLOSE
Current Station
Personal Weather Station
Location: Bryce, UT
Elevation: 7854 ft
Nearby Weather Stations

Elev 7854 ft 37.64 °N, 112.17 °W | Updated 49 minutes ago

Clear
Clear
52 °F
Feels Like 52 °F
N
0
Wind Variable Wind from North
Gusts 2.0 mph

Today
High -- | Low -- °F
--% Chance of Precip.
Yesterday
High -- | Low -- °F
Precip. -- in
7:00 AM 7:57 PM
First Quarter, 58% visible
Pressure 29.85 in
Visibility 10.0 miles
Clouds Clear
Dew Point 33 °F
Humidity 48%
Rainfall 0.00 in
Snow Depth 0 in , 3 in
UV 0 out of 12
Pollen 7.50 out of 12
Air Quality Not available.
Flu Activity Not available.
METAR KBCE 030453Z AUTO 26005KT 10SM CLR 09/02 A3019 RMK AO2 SLP108 T00940017

More Conditions Fewer Conditions

Pressure 29.85 in
Visibility 10.0 miles
Clouds Clear
Dew Point 33 °F
Humidity 48%
Rainfall 0.00 in
Snow Depth 0 in , 3 in
UV 0 out of 12
Pollen 7.50 out of 12
Air Quality Not available.
Flu Activity Not available.
METAR KBCE 030453Z AUTO 26005KT 10SM CLR 09/02 A3019 RMK AO2 SLP108 T00940017

More Conditions Fewer Conditions

10-Day Weather Forecast

Almanac

Astronomy

Sep. 02, 2014 Rise Set
Actual Time 7:00 AM MDT 7:57 PM MDT
Civil Twilight 6:34 AM MDT 8:23 PM MDT
Nautical Twilight 6:02 AM MDT 8:55 PM MDT
Astronomical Twilight 5:29 AM MDT 9:28 PM MDT
Moon 2:40 PM MDT (9/2) 12:10 AM MDT (9/2)
Length of Visible Light 13h 49m
Length of Day
12h 56m
Tomorrow will be 2m 19s shorter.
First Quarter, 58% of the Moon is Illuminated
Sep 3
First Quarter
Sep 8
Full
Sep 15
Last Quarter
Sep 24
New
Oct 1
First Quarter

Yesterday's Extremes

State Highs State Lows

Community

WunderPhotos

Upload Photos

1,749,877 photos uploaded!

Nearby

Snow Depth

Station Depth Elevation
Long Valley Jct 0 in 7360 ft
Agua Canyon 3 in 8900 ft
Midway Valley 2 in 9800 ft
Box Creek 0 in 9800 ft
Black Flat-U.M. Creek 0 in 9400 ft

Earthquake Activity

City Distance Mag. Time & Date
No recent earthquake activity has been reported nearby.
Minimum magnitude displayed is 2.5.

Coastal Water Temperatures

Place Temperature
No Stations Reporting

Nearby Weather Stations